Time;durP1;ratioP1;P1;durP2;ratioP2;P2;SDS_P1;SDS_P2;PMS_P1;PMS_P2;Temp;Humidity;BMP_temperature;BMP_pressure;BME280_temperature;BME280_humidity;BME280_pressure;Samples;Min_cycle;Max_cycle;Signal;HPM_P1;HPM_P2
2021/09/05 00:04:59;;;;;;;10.55;8.80;;;20.80;68.30;;;;;;10350264;28;20042;-55
2021/09/05 00:10:00;;;;;;;9.48;8.00;;;20.80;68.40;;;;;;10343810;28;20040;-55
2021/09/05 00:15:01;;;;;;;12.88;8.88;;;20.80;68.30;;;;;;10340158;28;20058;-54
2021/09/05 00:20:03;;;;;;;10.65;8.93;;;20.80;68.30;;;;;;10347064;28;20033;-55
2021/09/05 00:25:05;;;;;;;10.15;7.88;;;20.80;68.30;;;;;;10336525;28;20026;-53
2021/09/05 00:30:07;;;;;;;9.80;8.57;;;20.80;68.20;;;;;;10337685;28;20034;-54
2021/09/05 00:35:08;;;;;;;10.27;8.30;;;20.80;68.20;;;;;;10337378;28;20042;-54
2021/09/05 00:40:10;;;;;;;10.55;8.75;;;20.80;68.10;;;;;;10335741;28;20061;-55
2021/09/05 00:45:11;;;;;;;9.63;8.35;;;20.80;68.10;;;;;;10336725;28;20402;-55
2021/09/05 00:50:12;;;;;;;14.52;8.05;;;20.70;68.00;;;;;;10324932;28;20041;-55
2021/09/05 00:55:13;;;;;;;9.40;8.23;;;20.70;67.90;;;;;;10342534;28;20030;-55
2021/09/05 01:00:19;;;;;;;10.50;8.77;;;20.70;67.90;;;;;;10335930;28;20053;-55
2021/09/05 01:05:20;;;;;;;8.95;7.70;;;20.70;68.00;;;;;;10342410;28;20088;-55
2021/09/05 01:10:20;;;;;;;10.05;8.55;;;20.70;67.90;;;;;;10340827;28;20026;-55
2021/09/05 01:15:21;;;;;;;9.55;8.30;;;20.70;67.90;;;;;;10347695;28;20034;-55
2021/09/05 01:20:22;;;;;;;12.27;8.68;;;20.70;67.90;;;;;;10365610;28;20093;-55
2021/09/05 01:25:22;;;;;;;9.75;8.13;;;20.70;67.90;;;;;;10367496;28;20399;-55
2021/09/05 01:30:23;;;;;;;10.18;8.27;;;20.70;67.80;;;;;;10334931;28;20844;-55
2021/09/05 01:35:24;;;;;;;9.02;7.78;;;20.60;67.80;;;;;;10335248;28;20042;-54
2021/09/05 01:40:24;;;;;;;9.90;8.48;;;20.70;67.80;;;;;;10334742;28;20502;-55
2021/09/05 01:45:25;;;;;;;8.95;8.00;;;20.60;67.80;;;;;;10338139;28;20529;-55
2021/09/05 01:50:26;;;;;;;9.50;7.95;;;20.70;67.80;;;;;;10347951;28;20030;-54
2021/09/05 01:55:26;;;;;;;9.82;8.73;;;20.60;67.70;;;;;;10334110;28;20076;-55
2021/09/05 02:00:27;;;;;;;10.00;8.55;;;20.60;67.70;;;;;;10337573;28;20117;-54
2021/09/05 02:05:29;;;;;;;10.60;8.57;;;20.60;67.60;;;;;;10334433;28;20054;-55
2021/09/05 02:10:30;;;;;;;9.80;8.23;;;20.60;67.60;;;;;;10333754;28;20062;-55
2021/09/05 02:15:30;;;;;;;10.50;8.68;;;20.60;67.50;;;;;;10333715;28;20120;-55
2021/09/05 02:20:31;;;;;;;10.95;8.52;;;20.60;67.60;;;;;;10348470;28;20125;-55
2021/09/05 02:25:32;;;;;;;8.45;7.05;;;20.60;67.60;;;;;;10332057;28;20030;-55
2021/09/05 02:30:34;;;;;;;10.00;8.55;;;20.50;67.50;;;;;;10332302;28;20030;-54
2021/09/05 02:35:36;;;;;;;10.27;8.20;;;20.60;67.50;;;;;;10331876;28;20113;-54
2021/09/05 02:40:37;;;;;;;10.93;8.25;;;20.60;67.50;;;;;;10333141;28;20398;-55
2021/09/05 02:45:37;;;;;;;12.23;9.43;;;20.60;67.50;;;;;;10337324;28;20050;-53
2021/09/05 02:50:38;;;;;;;11.13;8.65;;;20.60;67.40;;;;;;10333094;28;20027;-54
2021/09/05 02:55:39;;;;;;;9.98;8.20;;;20.50;67.40;;;;;;10333061;28;20121;-53
2021/09/05 03:00:40;;;;;;;10.95;8.23;;;20.50;67.30;;;;;;10341698;28;20117;-54
2021/09/05 03:05:40;;;;;;;10.30;8.35;;;20.50;67.30;;;;;;10351738;28;20046;-55
2021/09/05 03:10:41;;;;;;;11.80;8.57;;;20.50;67.20;;;;;;10340803;28;20038;-54
2021/09/05 03:15:42;;;;;;;11.63;8.43;;;20.50;67.20;;;;;;10352229;28;20077;-55
2021/09/05 03:20:43;;;;;;;10.30;8.95;;;20.50;67.10;;;;;;10356054;28;20088;-54
2021/09/05 03:25:43;;;;;;;10.63;8.45;;;20.50;67.10;;;;;;10339604;28;20531;-54
2021/09/05 03:30:44;;;;;;;12.75;7.63;;;20.50;67.20;;;;;;10339802;28;20465;-54
2021/09/05 03:35:45;;;;;;;9.15;7.90;;;20.50;67.20;;;;;;10341169;28;20042;-53
2021/09/05 03:40:45;;;;;;;10.63;8.35;;;20.50;67.10;;;;;;10339480;28;20446;-55
2021/09/05 03:45:47;;;;;;;10.68;8.43;;;20.50;67.10;;;;;;10339193;28;20125;-54
2021/09/05 03:50:47;;;;;;;10.70;7.95;;;20.40;67.00;;;;;;10339131;28;20378;-53
2021/09/05 03:55:48;;;;;;;10.63;7.45;;;20.40;67.00;;;;;;10344220;28;20034;-55
2021/09/05 04:00:48;;;;;;;9.55;7.18;;;20.40;66.90;;;;;;10365450;28;20483;-54
2021/09/05 04:05:49;;;;;;;9.02;6.90;;;20.40;66.90;;;;;;10354915;28;20353;-54
2021/09/05 04:10:50;;;;;;;10.23;8.20;;;20.40;66.90;;;;;;10348029;28;20041;-54
2021/09/05 04:15:51;;;;;;;8.40;7.07;;;20.40;66.80;;;;;;10337845;28;20113;-54
2021/09/05 04:20:52;;;;;;;10.60;7.95;;;20.40;66.80;;;;;;10357129;28;20045;-55
2021/09/05 04:25:53;;;;;;;9.73;7.63;;;20.40;66.80;;;;;;10346487;28;20124;-54
2021/09/05 04:30:53;;;;;;;9.65;8.07;;;20.40;66.70;;;;;;10337597;28;20052;-54
2021/09/05 04:35:54;;;;;;;12.27;7.60;;;20.40;66.70;;;;;;10337171;28;20454;-54
2021/09/05 04:40:55;;;;;;;10.50;7.57;;;20.30;67.20;;;;;;10337078;28;20062;-53
2021/09/05 04:45:56;;;;;;;8.93;7.05;;;20.40;66.70;;;;;;10345467;28;20050;-55
2021/09/05 04:50:57;;;;;;;9.50;7.70;;;20.40;66.70;;;;;;10346328;28;20030;-55
2021/09/05 04:55:57;;;;;;;8.35;6.85;;;20.40;66.70;;;;;;10351013;28;20058;-54
2021/09/05 05:00:58;;;;;;;8.45;6.28;;;20.30;66.60;;;;;;10337849;28;20069;-54
2021/09/05 05:05:59;;;;;;;9.15;7.45;;;20.30;66.50;;;;;;10346098;28;20112;-55
2021/09/05 05:11:00;;;;;;;7.68;6.72;;;20.30;66.60;;;;;;10345491;28;20105;-55
2021/09/05 05:16:01;;;;;;;8.25;7.32;;;20.30;66.50;;;;;;10358403;28;20026;-55
2021/09/05 05:21:02;;;;;;;9.75;7.25;;;20.30;66.50;;;;;;10345636;28;20061;-55
2021/09/05 05:26:04;;;;;;;11.60;7.45;;;20.30;66.60;;;;;;10354936;28;20092;-55
2021/09/05 05:31:05;;;;;;;12.13;7.60;;;20.30;66.70;;;;;;10353991;28;20022;-54
2021/09/05 05:36:05;;;;;;;10.32;8.20;;;20.30;67.00;;;;;;10346450;28;20038;-55
2021/09/05 05:41:07;;;;;;;14.40;7.72;;;20.30;67.40;;;;;;10340176;28;20113;-55
2021/09/05 05:46:07;;;;;;;12.30;7.63;;;20.30;67.20;;;;;;10354173;28;20446;-54
2021/09/05 05:51:08;;;;;;;11.68;7.60;;;20.30;67.40;;;;;;10353798;28;20041;-54
2021/09/05 05:56:09;;;;;;;11.02;8.15;;;20.30;67.40;;;;;;10356263;28;20034;-55
2021/09/05 06:01:09;;;;;;;11.55;7.72;;;20.30;68.00;;;;;;10332327;28;20109;-55
2021/09/05 06:06:10;;;;;;;9.68;6.38;;;20.30;67.20;;;;;;10344027;28;20117;-56
2021/09/05 06:11:11;;;;;;;9.93;7.65;;;20.30;67.10;;;;;;10336400;28;20030;-55
2021/09/05 06:16:12;;;;;;;11.60;7.15;;;20.30;67.10;;;;;;10358235;28;20036;-55
2021/09/05 06:21:13;;;;;;;9.07;6.35;;;20.30;67.20;;;;;;10335687;28;20042;-55
2021/09/05 06:26:14;;;;;;;9.32;7.18;;;20.30;67.10;;;;;;10333023;28;20034;-55
2021/09/05 06:31:15;;;;;;;13.73;7.47;;;20.30;67.10;;;;;;10332080;28;20034;-54
2021/09/05 06:36:15;;;;;;;11.93;7.43;;;20.30;67.10;;;;;;10333227;28;20371;-53
2021/09/05 06:41:16;;;;;;;8.73;6.70;;;20.30;67.10;;;;;;10332939;28;20104;-55
2021/09/05 06:46:17;;;;;;;9.05;7.35;;;20.30;67.10;;;;;;10332951;28;20521;-54
2021/09/05 06:51:17;;;;;;;8.93;6.47;;;20.20;66.90;;;;;;10332649;28;20442;-55
2021/09/05 06:56:18;;;;;;;8.65;6.70;;;20.20;67.00;;;;;;10332783;28;20537;-53
2021/09/05 07:01:19;;;;;;;8.70;6.63;;;20.20;67.10;;;;;;10332608;28;20050;-54
2021/09/05 07:06:19;;;;;;;9.13;6.70;;;20.20;67.20;;;;;;10332460;28;20115;-55
2021/09/05 07:11:20;;;;;;;8.25;6.22;;;20.20;67.30;;;;;;10331283;28;20066;-54
2021/09/05 07:16:21;;;;;;;9.68;7.40;;;20.20;67.30;;;;;;10355787;28;20030;-54
2021/09/05 07:21:21;;;;;;;11.07;7.18;;;20.20;67.10;;;;;;10335964;28;20361;-55
2021/09/05 07:26:22;;;;;;;9.38;6.43;;;20.20;67.30;;;;;;10370941;28;20068;-54
2021/09/05 07:31:23;;;;;;;12.23;7.13;;;20.20;67.30;;;;;;10371610;28;20053;-55
2021/09/05 07:36:23;;;;;;;9.45;7.03;;;20.20;67.40;;;;;;10340212;28;20056;-54
2021/09/05 07:41:24;;;;;;;8.88;6.35;;;20.20;67.50;;;;;;10335228;28;20113;-55
2021/09/05 07:46:25;;;;;;;12.85;6.40;;;20.20;67.70;;;;;;10332845;28;20122;-54
2021/09/05 07:51:25;;;;;;;7.88;5.78;;;20.20;67.60;;;;;;10337413;28;20061;-55
2021/09/05 07:56:26;;;;;;;9.63;6.60;;;20.20;66.80;;;;;;10349896;28;20059;-54
2021/09/05 08:01:27;;;;;;;10.43;6.50;;;20.20;66.80;;;;;;10338562;28;20070;-54
2021/09/05 08:06:28;;;;;;;7.68;5.65;;;20.20;66.70;;;;;;10338380;28;20370;-54
2021/09/05 08:11:28;;;;;;;8.90;6.40;;;20.20;66.80;;;;;;10338180;28;20428;-53
2021/09/05 08:16:29;;;;;;;7.45;5.75;;;20.20;66.90;;;;;;10350274;28;20113;-51
2021/09/05 08:21:31;;;;;;;8.32;5.90;;;20.20;67.00;;;;;;10348287;28;20037;-52
2021/09/05 08:26:31;;;;;;;11.80;7.05;;;20.20;67.00;;;;;;10353032;28;20042;-52
2021/09/05 08:31:32;;;;;;;9.65;6.25;;;20.30;67.20;;;;;;10354030;28;20394;-55
2021/09/05 08:36:33;;;;;;;9.80;6.47;;;20.30;67.40;;;;;;10347152;28;20118;-53
2021/09/05 08:41:34;;;;;;;11.88;6.07;;;20.30;67.50;;;;;;10337033;28;20599;-54
2021/09/05 08:46:37;;;;;;;13.05;6.70;;;20.30;67.50;;;;;;10336600;28;20058;-54
2021/09/05 08:51:38;;;;;;;12.65;6.60;;;20.30;67.60;;;;;;10337357;28;20033;-52
2021/09/05 08:56:38;;;;;;;10.88;6.38;;;20.40;68.40;;;;;;10336371;28;20038;-53
2021/09/05 09:01:49;;;;;;;13.40;6.90;;;20.40;67.70;;;;;;10337486;28;20069;-54
2021/09/05 09:06:50;;;;;;;12.77;6.93;;;20.40;67.80;;;;;;10343501;28;20034;-53
2021/09/05 09:11:57;;;;;;;9.82;6.65;;;20.40;67.80;;;;;;10335929;28;20031;-52
2021/09/05 09:16:57;;;;;;;13.02;6.05;;;20.40;67.80;;;;;;10344373;28;20042;-53
2021/09/05 09:22:04;;;;;;;10.45;5.78;;;20.40;67.80;;;;;;10337446;28;20038;-54
2021/09/05 09:27:06;;;;;;;9.90;5.80;;;20.40;67.80;;;;;;10347124;28;20035;-54
2021/09/05 09:32:15;;;;;;;9.43;5.57;;;20.40;67.80;;;;;;10334150;28;20505;-54
2021/09/05 09:37:18;;;;;;;;;;;20.50;67.90;;;;;;10338944;28;20117;-54
2021/09/05 09:42:38;;;;;;;7.47;6.43;;;20.50;67.90;;;;;;10334181;28;19914;-54
2021/09/05 09:47:45;;;;;;;8.77;5.78;;;20.50;67.90;;;;;;10336881;28;20080;-54
2021/09/05 09:52:46;;;;;;;10.90;6.28;;;20.50;67.90;;;;;;10356985;28;20036;-54
2021/09/05 09:57:46;;;;;;;10.35;6.28;;;20.60;67.90;;;;;;10336659;28;20117;-55
2021/09/05 10:02:48;;;;;;;13.93;7.45;;;20.60;68.00;;;;;;10348748;28;20121;-54
2021/09/05 10:07:51;;;;;;;11.02;6.60;;;20.60;67.90;;;;;;10346822;28;20065;-54
2021/09/05 10:12:55;;;;;;;10.88;5.38;;;20.60;67.80;;;;;;10352589;28;20038;-55
2021/09/05 10:17:56;;;;;;;7.75;6.13;;;20.60;67.80;;;;;;10349637;28;20032;-53
2021/09/05 10:22:57;;;;;;;9.48;6.18;;;20.70;67.80;;;;;;10354710;28;20041;-53
2021/09/05 10:27:58;;;;;;;11.52;5.75;;;20.70;67.70;;;;;;10347314;28;20034;-53
2021/09/05 10:33:02;;;;;;;10.32;6.25;;;20.70;67.70;;;;;;10349431;28;20116;-51
2021/09/05 10:38:09;;;;;;;9.93;6.78;;;20.70;67.70;;;;;;10335064;28;20045;-50
2021/09/05 10:43:11;;;;;;;9.70;6.60;;;20.80;67.70;;;;;;10333210;28;20046;-51
2021/09/05 10:48:38;;;;;;;10.73;5.90;;;20.80;67.70;;;;;;10331597;28;20043;-53
2021/09/05 10:54:24;;;;;;;10.77;7.43;;;20.80;67.60;;;;;;10332942;28;20030;-51
2021/09/05 10:59:31;;;;;;;7.43;5.78;;;20.90;67.70;;;;;;10345519;28;20038;-56
2021/09/05 11:04:44;;;;;;;7.85;5.55;;;20.90;67.60;;;;;;10349868;28;20795;-53
2021/09/05 11:09:47;;;;;;;11.30;5.65;;;20.90;67.70;;;;;;10369607;28;20030;-54
2021/09/05 11:14:48;;;;;;;10.70;6.18;;;21.00;67.70;;;;;;10354321;28;20089;-55
2021/09/05 11:19:52;;;;;;;8.90;6.25;;;21.00;67.70;;;;;;10348164;28;20108;-55
2021/09/05 11:25:27;;;;;;;8.85;6.10;;;21.00;67.60;;;;;;10341116;28;20034;-55
2021/09/05 11:30:33;;;;;;;12.45;5.55;;;21.00;67.70;;;;;;10366296;28;20460;-55
2021/09/05 11:35:46;;;;;;;9.18;5.68;;;21.00;67.80;;;;;;10339204;28;20022;-54
2021/09/05 11:40:54;;;;;;;10.73;6.47;;;21.10;68.50;;;;;;10336774;28;20034;-54
2021/09/05 11:45:54;;;;;;;10.68;6.15;;;21.10;67.80;;;;;;10343159;28;20487;-56
2021/09/05 11:51:02;;;;;;;12.68;6.28;;;21.10;68.20;;;;;;10338535;28;20097;-55
2021/09/05 11:56:03;;;;;;;13.25;6.10;;;21.10;67.90;;;;;;10345098;28;20585;-55
2021/09/05 12:01:05;;;;;;;8.20;6.00;;;21.20;67.90;;;;;;10337433;28;20118;-53
2021/09/05 12:06:10;;;;;;;8.10;5.00;;;21.20;67.90;;;;;;10364782;28;20104;-55
2021/09/05 12:11:10;;;;;;;10.57;5.70;;;21.20;67.90;;;;;;10377119;28;20482;-55
2021/09/05 12:16:29;;;;;;;8.32;5.78;;;21.20;67.90;;;;;;10338060;28;20068;-55
2021/09/05 12:21:32;;;;;;;10.40;6.65;;;21.20;67.80;;;;;;10350858;28;20034;-54
2021/09/05 12:26:37;;;;;;;8.55;5.97;;;21.20;67.90;;;;;;10336580;28;20117;-55
2021/09/05 12:31:47;;;;;;;13.23;6.95;;;21.20;67.90;;;;;;10337400;28;20026;-55
2021/09/05 12:36:57;;;;;;;7.13;4.97;;;21.30;68.50;;;;;;10337204;28;20042;-55
2021/09/05 12:42:13;;;;;;;7.85;5.05;;;21.30;67.90;;;;;;10337067;28;20034;-55
2021/09/05 12:47:28;;;;;;;11.05;6.10;;;21.30;67.90;;;;;;10347106;28;20071;-55
2021/09/05 12:52:31;;;;;;;7.05;5.38;;;21.30;67.90;;;;;;10344064;28;20049;-55
2021/09/05 12:57:32;;;;;;;8.77;6.47;;;21.30;67.90;;;;;;10344944;28;20788;-55
2021/09/05 13:02:33;;;;;;;8.68;5.20;;;21.30;67.90;;;;;;10346109;28;20042;-55
2021/09/05 13:07:34;;;;;;;8.35;6.43;;;21.30;68.00;;;;;;10335866;28;20038;-54
2021/09/05 13:12:35;;;;;;;7.72;5.93;;;21.30;67.90;;;;;;10339454;28;20031;-56
2021/09/05 13:17:36;;;;;;;10.45;5.18;;;21.30;67.90;;;;;;10340189;28;20506;-54
2021/09/05 13:22:37;;;;;;;6.93;5.03;;;21.30;67.90;;;;;;10335470;28;20117;-56
2021/09/05 13:27:38;;;;;;;10.02;5.10;;;21.30;67.90;;;;;;10333952;28;20034;-56
2021/09/05 13:32:38;;;;;;;9.02;4.82;;;21.40;68.00;;;;;;10346399;28;20030;-55
2021/09/05 13:37:39;;;;;;;7.57;4.78;;;21.30;68.00;;;;;;10335172;28;20030;-56
2021/09/05 13:42:40;;;;;;;8.00;5.90;;;21.30;68.00;;;;;;10334717;28;20064;-56
2021/09/05 13:47:41;;;;;;;10.00;5.55;;;21.30;68.00;;;;;;10333723;28;20506;-55
2021/09/05 13:52:41;;;;;;;9.45;5.35;;;21.40;68.00;;;;;;10345928;28;20058;-55
2021/09/05 13:57:42;;;;;;;7.65;6.00;;;21.40;68.00;;;;;;10347993;28;20069;-55
2021/09/05 14:02:42;;;;;;;6.75;4.55;;;21.30;68.00;;;;;;10346484;28;20077;-54
2021/09/05 14:07:44;;;;;;;6.78;4.90;;;21.30;68.00;;;;;;10350001;28;20073;-55
2021/09/05 14:12:45;;;;;;;7.18;4.80;;;21.40;68.10;;;;;;10331498;28;20447;-55
2021/09/05 14:17:46;;;;;;;8.98;5.75;;;21.30;68.10;;;;;;10337412;28;20049;-54
2021/09/05 14:22:46;;;;;;;9.75;5.85;;;21.30;68.10;;;;;;10332345;28;20033;-56
2021/09/05 14:28:00;;;;;;;10.27;5.43;;;21.30;68.20;;;;;;10334642;28;20116;-53
2021/09/05 15:14:50;;;;;;;12.98;5.63;;;21.30;67.90;;;;;;10362481;28;20042;-51
2021/09/05 15:19:50;;;;;;;17.35;6.15;;;21.30;68.40;;;;;;10351113;28;20069;-52
2021/09/05 15:24:51;;;;;;;20.45;5.45;;;21.30;68.80;;;;;;10364728;28;20053;-54
2021/09/05 15:35:44;;;;;;;13.63;5.55;;;21.30;68.20;;;;;;10345892;28;20034;-55
2021/09/05 15:51:29;;;;;;;12.57;9.00;;;21.40;71.80;;;;;;10373626;28;20491;-56
2021/09/05 15:56:31;;;;;;;17.83;12.23;;;21.40;69.30;;;;;;10352255;28;20516;-56
2021/09/05 16:01:55;;;;;;;18.38;11.98;;;21.50;72.80;;;;;;10344396;28;20042;-55
2021/09/05 16:17:34;;;;;;;26.63;11.70;;;21.50;72.90;;;;;;10342880;28;20109;-50
2021/09/05 16:22:34;;;;;;;19.70;11.02;;;21.50;72.30;;;;;;10337845;28;20038;-49
2021/09/05 16:27:36;;;;;;;18.67;10.05;;;21.50;72.20;;;;;;10352302;28;20066;-51
2021/09/05 16:32:55;;;;;;;13.02;9.23;;;21.50;70.20;;;;;;10339354;28;20085;-49
2021/09/05 16:43:06;;;;;;;14.57;8.70;;;21.40;69.90;;;;;;10342247;28;20050;-51
2021/09/05 16:48:07;;;;;;;11.30;7.90;;;21.40;69.90;;;;;;10335382;28;20053;-54
2021/09/05 16:53:08;;;;;;;12.82;8.93;;;21.40;69.80;;;;;;10336990;28;20061;-53
2021/09/05 16:58:09;;;;;;;14.60;10.07;;;21.40;69.50;;;;;;10336781;28;20105;-53
2021/09/05 17:03:09;;;;;;;11.38;7.60;;;21.30;69.70;;;;;;10336177;28;20114;-51
2021/09/05 17:08:10;;;;;;;11.48;8.82;;;21.30;69.60;;;;;;10336338;28;20049;-54
2021/09/05 17:13:12;;;;;;;20.20;8.85;;;21.30;69.60;;;;;;10345180;28;20033;-49
2021/09/05 17:18:12;;;;;;;13.65;8.73;;;21.40;69.60;;;;;;10347949;28;20030;-49
2021/09/05 17:23:13;;;;;;;13.07;8.48;;;21.30;69.20;;;;;;10345628;28;20386;-51
2021/09/05 17:28:14;;;;;;;11.73;8.38;;;21.40;69.50;;;;;;10339628;28;20072;-53
2021/09/05 17:33:14;;;;;;;10.85;7.28;;;21.30;69.50;;;;;;10338440;28;20092;-48
2021/09/05 17:38:16;;;;;;;12.30;8.88;;;21.30;69.60;;;;;;10345142;28;20054;-51
2021/09/05 17:43:24;;;;;;;13.43;8.32;;;21.30;69.70;;;;;;10474264;28;20402;-58
2021/09/05 17:48:25;;;;;;;13.13;9.45;;;21.30;69.60;;;;;;10446172;28;20091;-56
2021/09/05 17:53:25;;;;;;;11.57;7.03;;;21.30;69.60;;;;;;10449169;28;20440;-48
2021/09/05 17:58:26;;;;;;;12.30;8.30;;;21.30;69.60;;;;;;10448658;28;20496;-53
2021/09/05 18:03:27;;;;;;;10.38;7.60;;;21.30;69.70;;;;;;10449312;28;20099;-52
2021/09/05 18:08:27;;;;;;;10.60;8.02;;;21.30;69.60;;;;;;10447613;28;20025;-53
2021/09/05 18:13:28;;;;;;;15.20;9.48;;;21.30;69.60;;;;;;10441855;28;20381;-52
2021/09/05 18:18:29;;;;;;;12.30;8.75;;;21.30;69.70;;;;;;10458306;28;20531;-51
2021/09/05 18:23:29;;;;;;;14.27;8.75;;;21.30;70.00;;;;;;10448619;28;20493;-51
2021/09/05 18:28:30;;;;;;;13.10;8.65;;;21.30;71.20;;;;;;10447834;28;20017;-51
2021/09/05 18:33:31;;;;;;;17.02;7.88;;;21.30;71.70;;;;;;10447644;28;20487;-48
2021/09/05 18:38:32;;;;;;;12.75;8.05;;;21.30;71.50;;;;;;10443950;28;20039;-49
2021/09/05 18:43:32;;;;;;;11.95;8.18;;;21.30;70.10;;;;;;10446972;28;20021;-52
2021/09/05 18:48:33;;;;;;;14.02;8.52;;;21.30;71.10;;;;;;10447862;28;20029;-50
2021/09/05 18:53:34;;;;;;;14.52;8.68;;;21.30;70.60;;;;;;10426441;28;20065;-50
2021/09/05 18:58:34;;;;;;;12.82;8.35;;;21.30;70.00;;;;;;10419919;28;20045;-48
2021/09/05 19:03:35;;;;;;;18.25;9.48;;;21.30;69.90;;;;;;10419001;28;20018;-52
2021/09/05 19:08:36;;;;;;;14.25;9.07;;;21.30;71.90;;;;;;10418797;28;20053;-48
2021/09/05 19:13:37;;;;;;;10.73;8.05;;;21.30;71.80;;;;;;10418867;28;20057;-53
2021/09/05 19:18:38;;;;;;;12.65;8.23;;;21.30;71.90;;;;;;10422390;28;20130;-48
2021/09/05 19:23:39;;;;;;;23.63;7.97;;;21.30;71.70;;;;;;10418913;28;20390;-52
2021/09/05 19:28:40;;;;;;;14.05;8.05;;;21.30;71.50;;;;;;10406885;28;20029;-53
2021/09/05 19:33:41;;;;;;;11.43;7.75;;;21.30;70.30;;;;;;10416805;28;20455;-52
2021/09/05 19:38:42;;;;;;;11.05;7.85;;;21.30;70.10;;;;;;10416934;28;20413;-51
2021/09/05 19:43:43;;;;;;;13.35;8.93;;;21.30;70.20;;;;;;10417378;28;20057;-53
2021/09/05 19:48:44;;;;;;;15.65;8.10;;;21.30;70.20;;;;;;10417456;28;20037;-53
2021/09/05 19:53:45;;;;;;;10.52;8.45;;;21.30;70.20;;;;;;10417720;28;20065;-49
2021/09/05 19:58:45;;;;;;;10.63;8.85;;;21.20;70.00;;;;;;10415819;28;20120;-52
2021/09/05 20:03:47;;;;;;;12.35;8.63;;;21.30;70.10;;;;;;10416478;28;20128;-55
2021/09/05 20:08:48;;;;;;;9.80;7.90;;;21.30;70.10;;;;;;10416137;28;20401;-55
2021/09/05 20:13:48;;;;;;;12.52;9.48;;;21.20;70.10;;;;;;10417299;28;20034;-54
2021/09/05 20:18:49;;;;;;;13.68;7.90;;;21.20;70.00;;;;;;10416908;28;20022;-54
2021/09/05 20:23:49;;;;;;;12.88;8.98;;;21.20;70.00;;;;;;10415624;28;20065;-55
2021/09/05 20:28:50;;;;;;;12.32;8.00;;;21.20;70.50;;;;;;10416399;28;20079;-55
2021/09/05 20:33:51;;;;;;;13.23;8.93;;;21.20;69.80;;;;;;10416513;28;20497;-54
2021/09/05 20:38:52;;;;;;;12.30;8.18;;;21.20;69.70;;;;;;10418588;28;20049;-55
2021/09/05 20:43:52;;;;;;;11.18;8.40;;;21.20;69.60;;;;;;10425401;28;20029;-56
2021/09/05 20:48:53;;;;;;;11.70;8.65;;;21.20;69.60;;;;;;10415489;28;20033;-55
2021/09/05 20:53:54;;;;;;;11.25;8.00;;;21.20;69.50;;;;;;10415285;28;20163;-53
2021/09/05 20:58:55;;;;;;;12.70;8.27;;;21.10;69.50;;;;;;10413847;28;20485;-55
2021/09/05 21:03:56;;;;;;;10.88;8.65;;;21.10;69.40;;;;;;10415238;28;20029;-56
2021/09/05 21:08:56;;;;;;;10.18;8.40;;;21.10;69.40;;;;;;10414614;28;20029;-55
2021/09/05 21:13:57;;;;;;;10.38;8.18;;;21.10;69.30;;;;;;10414435;28;20112;-53
2021/09/05 21:18:57;;;;;;;12.07;8.57;;;21.10;69.40;;;;;;10420074;28;20393;-55
2021/09/05 21:24:00;;;;;;;11.45;7.57;;;21.10;69.40;;;;;;10414199;28;20064;-55
2021/09/05 21:29:00;;;;;;;10.75;7.85;;;21.10;69.30;;;;;;10414526;28;20079;-53
2021/09/05 21:34:01;;;;;;;13.35;9.15;;;21.10;69.40;;;;;;10414212;28;20604;-56
2021/09/05 21:39:02;;;;;;;9.63;8.52;;;21.10;69.30;;;;;;10412609;28;20072;-51
2021/09/05 21:44:03;;;;;;;9.85;8.75;;;21.10;69.20;;;;;;10413958;28;20534;-55
2021/09/05 21:49:03;;;;;;;11.52;8.18;;;21.10;69.20;;;;;;10413908;28;20041;-54
2021/09/05 21:54:04;;;;;;;10.18;7.90;;;21.00;69.10;;;;;;10413853;28;20034;-54
2021/09/05 21:59:06;;;;;;;11.75;8.75;;;21.10;69.10;;;;;;10413408;28;20034;-53
2021/09/05 22:04:07;;;;;;;11.02;8.45;;;21.00;69.10;;;;;;10413810;28;20048;-55
2021/09/05 22:09:08;;;;;;;10.75;7.78;;;21.00;69.10;;;;;;10413618;28;20121;-55
2021/09/05 22:14:08;;;;;;;9.93;8.00;;;21.10;69.10;;;;;;10413499;28;20119;-54
2021/09/05 22:19:09;;;;;;;10.73;8.75;;;21.00;69.00;;;;;;10417538;28;20041;-55
2021/09/05 22:24:10;;;;;;;11.05;9.13;;;21.00;68.90;;;;;;10413351;28;20069;-55
2021/09/05 22:29:10;;;;;;;10.25;8.15;;;21.00;68.90;;;;;;10418253;28;20057;-54
2021/09/05 22:34:11;;;;;;;11.07;8.80;;;21.00;68.90;;;;;;10420961;28;20112;-55
2021/09/05 22:39:12;;;;;;;9.55;8.13;;;21.00;69.00;;;;;;10420414;28;20413;-54
2021/09/05 22:44:13;;;;;;;11.23;8.18;;;21.00;68.90;;;;;;10420696;28;20033;-55
2021/09/05 22:49:14;;;;;;;10.38;8.68;;;21.00;68.80;;;;;;10419072;28;20061;-54
2021/09/05 22:54:14;;;;;;;10.60;8.40;;;21.00;68.60;;;;;;10418761;28;20037;-55
2021/09/05 22:59:15;;;;;;;12.95;8.13;;;21.00;68.50;;;;;;10418775;28;20554;-55
2021/09/05 23:04:16;;;;;;;9.82;7.63;;;20.90;68.40;;;;;;10419799;28;20065;-53
2021/09/05 23:09:16;;;;;;;11.13;8.45;;;20.90;68.40;;;;;;10420005;28;20079;-55
2021/09/05 23:14:17;;;;;;;9.70;7.95;;;20.90;68.40;;;;;;10419580;28;20033;-52
2021/09/05 23:19:18;;;;;;;10.55;8.20;;;20.90;68.30;;;;;;10419446;28;20041;-54
2021/09/05 23:24:19;;;;;;;9.15;7.68;;;20.90;68.30;;;;;;10419242;28;20493;-55
2021/09/05 23:29:19;;;;;;;12.55;8.60;;;20.90;68.30;;;;;;10417609;28;20026;-55
2021/09/05 23:34:20;;;;;;;13.02;9.05;;;20.90;68.20;;;;;;10418695;28;20520;-53
2021/09/05 23:39:21;;;;;;;10.75;8.18;;;20.90;68.10;;;;;;10418213;28;20055;-55
2021/09/05 23:44:21;;;;;;;10.82;8.55;;;20.90;68.10;;;;;;10418110;28;20033;-55
2021/09/05 23:49:22;;;;;;;11.55;8.15;;;20.90;68.10;;;;;;10418167;28;20360;-55
2021/09/05 23:54:23;;;;;;;9.25;8.10;;;20.90;68.10;;;;;;10417655;28;20065;-54
2021/09/05 23:59:24;;;;;;;10.00;8.32;;;20.90;68.10;;;;;;10417716;28;20112;-55
